Time;durP1;ratioP1;P1;durP2;ratioP2;P2;SDS_P1;SDS_P2;PMS_P1;PMS_P2;Temp;Humidity;BMP_temperature;BMP_pressure;BME280_temperature;BME280_humidity;BME280_pressure;Samples;Min_cycle;Max_cycle;Signal;HPM_P1;HPM_P2
2022/11/19 00:00:54;;;;;;;0.40;0.40;;;0.70;99.90;;;;;;5061585;28;20080;-79
2022/11/19 00:03:21;;;;;;;0.10;0.10;;;0.70;99.90;;;;;;5061150;28;20579;-78
2022/11/19 00:05:49;;;;;;;0.20;0.20;;;0.60;99.90;;;;;;5062307;28;20080;-78
2022/11/19 00:08:19;;;;;;;0.55;0.55;;;0.60;99.90;;;;;;5062245;28;20041;-78
2022/11/19 00:10:46;;;;;;;0.00;0.00;;;0.60;99.90;;;;;;5043468;28;20487;-78
2022/11/19 00:13:13;;;;;;;0.20;0.20;;;0.60;99.90;;;;;;5062045;28;20472;-79
2022/11/19 00:15:39;;;;;;;0.00;0.00;;;0.50;44.70;;;;;;5063090;28;20488;-79
2022/11/19 00:18:05;;;;;;;0.00;0.00;;;0.40;24.00;;;;;;5060014;28;20052;-78
2022/11/19 00:20:32;;;;;;;0.25;0.25;;;0.40;99.90;;;;;;5061985;28;20044;-79
2022/11/19 00:22:59;;;;;;;0.22;0.22;;;0.20;17.70;;;;;;5043910;28;20053;-79
2022/11/19 00:25:27;;;;;;;0.08;0.08;;;0.20;99.90;;;;;;5063420;28;20033;-79
2022/11/19 00:27:53;;;;;;;0.85;0.28;;;0.10;99.90;;;;;;5063210;28;20068;-79
2022/11/19 00:30:19;;;;;;;0.20;0.20;;;0.10;1.00;;;;;;5044265;28;20097;-79
2022/11/19 00:32:45;;;;;;;0.10;0.10;;;-0.10;99.90;;;;;;5059714;28;20496;-78
2022/11/19 00:35:12;;;;;;;1.15;1.05;;;-0.10;1.00;;;;;;5026700;28;20040;-80
2022/11/19 00:37:38;;;;;;;0.00;0.00;;;0.00;1.00;;;;;;5060665;28;20044;-80
2022/11/19 00:40:06;;;;;;;0.00;0.00;;;-0.10;1.00;;;;;;5062642;28;20041;-80
2022/11/19 00:42:34;;;;;;;0.88;0.65;;;-0.10;99.90;;;;;;5061776;28;20033;-79
2022/11/19 00:45:00;;;;;;;1.00;0.80;;;-0.20;1.00;;;;;;5060562;28;20045;-80
2022/11/19 00:47:25;;;;;;;0.15;0.15;;;-0.30;99.90;;;;;;5043177;28;20044;-80
2022/11/19 00:49:51;;;;;;;0.00;0.00;;;-0.30;83.20;;;;;;5043456;28;20440;-80
2022/11/19 00:52:16;;;;;;;0.00;0.00;;;-0.30;99.90;;;;;;5061719;28;20067;-80
2022/11/19 00:54:42;;;;;;;0.20;0.20;;;-0.40;99.90;;;;;;5061330;28;20394;-81
2022/11/19 00:57:08;;;;;;;1.38;1.27;;;-0.30;13.20;;;;;;5059892;28;20091;-80
2022/11/19 00:59:33;;;;;;;0.20;0.20;;;-0.30;99.90;;;;;;5060507;28;20045;-80
2022/11/19 01:01:59;;;;;;;1.17;1.08;;;-0.30;1.00;;;;;;5060849;28;20045;-81
2022/11/19 01:04:25;;;;;;;0.10;0.10;;;-0.30;99.90;;;;;;5062443;28;20052;-80
2022/11/19 01:06:50;;;;;;;0.00;0.00;;;-0.40;99.90;;;;;;5063061;28;20043;-80
2022/11/19 01:09:16;;;;;;;0.43;0.43;;;-0.50;99.90;;;;;;5062933;28;20072;-80
2022/11/19 01:11:41;;;;;;;0.13;0.13;;;-0.50;99.90;;;;;;5062001;28;20048;-80
2022/11/19 01:14:07;;;;;;;0.10;0.10;;;-0.40;33.90;;;;;;5062003;28;20080;-79
2022/11/19 01:16:35;;;;;;;0.00;0.00;;;-0.40;1.00;;;;;;5060687;28;20036;-81
2022/11/19 01:19:02;;;;;;;0.33;0.33;;;-0.40;1.00;;;;;;5062383;28;20037;-79
2022/11/19 01:21:30;;;;;;;0.77;0.77;;;-0.40;91.90;;;;;;5062328;28;20048;-80
2022/11/19 01:23:57;;;;;;;4.17;1.17;;;-0.50;1.00;;;;;;5044387;28;20045;-80
2022/11/19 01:26:23;;;;;;;0.20;0.20;;;-0.50;99.90;;;;;;5061676;28;20109;-81
2022/11/19 01:28:49;;;;;;;2.55;0.80;;;-0.50;99.90;;;;;;5063254;28;20086;-80
2022/11/19 01:31:16;;;;;;;0.22;0.22;;;-0.50;1.00;;;;;;5065200;28;20032;-81
2022/11/19 01:33:42;;;;;;;0.43;0.43;;;-0.50;1.00;;;;;;5066784;28;20049;-81
2022/11/19 01:36:12;;;;;;;0.63;0.63;;;-0.50;1.00;;;;;;5067451;28;20060;-80
2022/11/19 01:38:37;;;;;;;0.00;0.00;;;-0.60;1.00;;;;;;5065953;28;20073;-80
2022/11/19 01:41:06;;;;;;;0.93;0.93;;;-0.50;1.00;;;;;;5066180;28;20561;-80
2022/11/19 01:43:49;;;;;;;0.85;0.85;;;-0.50;99.90;;;;;;5065596;28;20423;-80
2022/11/19 01:46:18;;;;;;;0.10;0.10;;;-0.60;99.90;;;;;;5046478;28;20101;-81
2022/11/19 01:49:11;;;;;;;0.00;0.00;;;-0.50;99.90;;;;;;5046574;28;20041;-80
2022/11/19 01:51:47;;;;;;;0.10;0.10;;;-0.60;1.00;;;;;;5045547;28;20045;-80
2022/11/19 01:54:39;;;;;;;0.32;0.32;;;-0.70;99.90;;;;;;5046602;28;20559;-80
2022/11/19 01:57:13;;;;;;;0.08;0.08;;;-0.60;99.90;;;;;;5064656;28;20049;-80
2022/11/19 01:59:40;;;;;;;0.45;0.45;;;-0.70;99.90;;;;;;5065182;28;20049;-80
2022/11/19 02:02:06;;;;;;;0.20;0.20;;;-0.70;1.00;;;;;;5065979;28;20040;-79
2022/11/19 02:04:33;;;;;;;0.00;0.00;;;-0.70;1.00;;;;;;5063582;28;20506;-80
2022/11/19 02:07:00;;;;;;;0.47;0.47;;;-0.60;38.70;;;;;;5067763;28;20435;-80
2022/11/19 02:09:27;;;;;;;0.10;0.10;;;-0.60;99.90;;;;;;5066496;28;20575;-81
2022/11/19 02:12:04;;;;;;;0.00;0.00;;;-0.70;99.90;;;;;;5064447;28;20041;-80
2022/11/19 02:14:45;;;;;;;0.30;0.30;;;-0.80;99.90;;;;;;5065752;28;20506;-80
2022/11/19 02:17:41;;;;;;;0.00;0.00;;;-0.80;99.90;;;;;;5067283;28;20120;-81
2022/11/19 02:20:31;;;;;;;0.10;0.10;;;-0.90;99.90;;;;;;5066578;28;20056;-80
2022/11/19 02:23:34;;;;;;;0.00;0.00;;;-0.90;1.00;;;;;;5066611;28;20389;-81
2022/11/19 02:26:37;;;;;;;0.10;0.10;;;-1.00;1.00;;;;;;5065467;28;20054;-80
2022/11/19 02:29:19;;;;;;;0.00;0.00;;;-1.00;99.90;;;;;;5066731;28;20140;-81
2022/11/19 02:32:03;;;;;;;0.85;0.75;;;-0.90;99.90;;;;;;5067340;28;20053;-80
2022/11/19 02:34:44;;;;;;;0.20;0.20;;;-1.10;99.90;;;;;;5066255;28;20047;-81
2022/11/19 02:37:20;;;;;;;0.00;0.00;;;-1.00;99.90;;;;;;5067385;28;20049;-80
2022/11/19 02:40:06;;;;;;;0.00;0.00;;;-1.20;1.00;;;;;;5066062;28;20051;-81
2022/11/19 02:42:53;;;;;;;1.65;0.80;;;-1.30;1.00;;;;;;5067716;28;20041;-81
2022/11/19 02:45:25;;;;;;;0.40;0.40;;;-0.90;1.00;;;;;;5067102;28;20128;-80
2022/11/19 02:47:58;;;;;;;0.10;0.10;;;-0.80;1.00;;;;;;5068844;28;20063;-81
2022/11/19 02:50:30;;;;;;;1.30;0.73;;;-0.90;99.90;;;;;;5068534;28;20411;-81
2022/11/19 02:52:57;;;;;;;0.20;0.20;;;-0.90;99.90;;;;;;5068153;28;20449;-80
2022/11/19 03:06:36;;;;;;;0.05;0.05;;;-1.20;99.90;;;;;;5092241;28;20052;-76
2022/11/19 03:09:02;;;;;;;0.10;0.10;;;-1.30;99.90;;;;;;5093581;28;20071;-76
2022/11/19 03:11:30;;;;;;;0.10;0.10;;;-1.40;99.90;;;;;;5075749;28;20043;-79
2022/11/19 03:17:20;;;;;;;4.07;1.60;;;-1.50;99.90;;;;;;5093605;28;20056;-77
2022/11/19 03:19:49;;;;;;;1.58;0.65;;;-1.50;99.90;;;;;;5094764;28;20040;-77
2022/11/19 03:22:17;;;;;;;0.07;0.07;;;-1.60;99.90;;;;;;5092080;28;20024;-77
2022/11/19 03:24:48;;;;;;;0.10;0.10;;;-1.60;99.90;;;;;;5093851;28;20068;-78
2022/11/19 03:27:45;;;;;;;0.10;0.10;;;-1.60;99.90;;;;;;5093933;28;20048;-77
2022/11/19 03:30:14;;;;;;;0.93;0.93;;;-1.70;1.00;;;;;;5077677;28;20049;-78
2022/11/19 03:32:43;;;;;;;0.08;0.08;;;-1.70;99.90;;;;;;5077213;28;20373;-77
2022/11/19 03:35:14;;;;;;;0.00;0.00;;;-1.70;99.90;;;;;;5077393;28;20045;-77
2022/11/19 03:37:42;;;;;;;0.00;0.00;;;-1.70;99.90;;;;;;5095113;28;20048;-77
2022/11/19 03:40:10;;;;;;;0.53;0.53;;;-1.70;1.00;;;;;;5095368;28;20426;-76
2022/11/19 03:42:38;;;;;;;0.10;0.10;;;-1.60;1.00;;;;;;5095455;28;20060;-78
2022/11/19 03:45:09;;;;;;;0.50;0.50;;;-1.70;1.00;;;;;;5095323;28;20025;-77
2022/11/19 03:47:37;;;;;;;0.00;0.00;;;-1.60;99.90;;;;;;5093849;28;20072;-76
2022/11/19 03:50:15;;;;;;;0.57;0.57;;;-1.50;90.00;;;;;;5096220;28;20040;-77
2022/11/19 03:52:41;;;;;;;0.82;0.82;;;-1.50;99.90;;;;;;5094558;28;20036;-76
2022/11/19 03:55:11;;;;;;;0.22;0.22;;;-1.60;99.90;;;;;;5094541;28;20107;-77
2022/11/19 03:57:37;;;;;;;0.10;0.10;;;-1.70;99.90;;;;;;5080367;28;20132;-77
2022/11/19 04:00:03;;;;;;;0.00;0.00;;;-1.60;99.90;;;;;;5075219;28;20095;-77
2022/11/19 04:02:29;;;;;;;0.30;0.30;;;-1.50;99.90;;;;;;5055446;28;20049;-78
2022/11/19 04:04:54;;;;;;;0.00;0.00;;;-1.40;99.90;;;;;;5074409;28;20047;-79
2022/11/19 04:07:22;;;;;;;0.47;0.47;;;-1.60;99.90;;;;;;5075604;28;20059;-78
2022/11/19 04:09:48;;;;;;;0.10;0.10;;;-1.60;99.90;;;;;;5075222;28;20060;-78
2022/11/19 04:12:18;;;;;;;0.20;0.20;;;-1.60;99.90;;;;;;5074425;28;20051;-79
2022/11/19 04:14:45;;;;;;;0.17;0.17;;;-1.50;13.40;;;;;;5075461;28;20052;-78
2022/11/19 04:17:11;;;;;;;0.27;0.27;;;-1.60;1.00;;;;;;5075463;28;20074;-77
2022/11/19 04:19:36;;;;;;;0.00;0.00;;;-1.60;99.90;;;;;;5074887;28;20041;-77
2022/11/19 04:22:02;;;;;;;0.00;0.00;;;-1.60;99.90;;;;;;5075418;28;20023;-78
2022/11/19 04:24:28;;;;;;;0.00;0.00;;;-1.70;99.90;;;;;;5074239;28;20029;-78
2022/11/19 04:26:53;;;;;;;0.20;0.20;;;-1.80;79.10;;;;;;5074530;28;20044;-78
2022/11/19 04:29:19;;;;;;;0.15;0.15;;;-1.80;99.90;;;;;;5074198;28;20087;-78
2022/11/19 04:31:45;;;;;;;1.00;0.90;;;-1.70;99.90;;;;;;5073323;28;20053;-77
2022/11/19 04:34:10;;;;;;;0.00;0.00;;;-1.80;99.90;;;;;;5074400;28;20033;-78
2022/11/19 04:36:38;;;;;;;0.17;0.17;;;-1.80;99.90;;;;;;5071338;28;20037;-77
2022/11/19 04:39:04;;;;;;;0.30;0.30;;;-1.90;99.90;;;;;;5072833;28;20049;-77
2022/11/19 04:41:30;;;;;;;0.10;0.10;;;-1.80;99.90;;;;;;5072692;28;20052;-77
2022/11/19 04:43:55;;;;;;;0.10;0.10;;;-2.00;99.90;;;;;;5071413;28;20041;-77
2022/11/19 04:46:21;;;;;;;0.00;0.00;;;-2.10;1.00;;;;;;5069981;28;20033;-77
2022/11/19 04:48:47;;;;;;;0.10;0.10;;;-2.10;1.00;;;;;;5071772;28;20037;-77
2022/11/19 04:51:12;;;;;;;0.00;0.00;;;-2.20;1.00;;;;;;5071182;28;20061;-76
2022/11/19 04:53:38;;;;;;;0.00;0.00;;;-2.10;99.90;;;;;;5070970;28;20047;-76
2022/11/19 04:56:04;;;;;;;1.65;0.90;;;-2.10;40.30;;;;;;5070094;28;20044;-77
2022/11/19 04:58:30;;;;;;;0.10;0.10;;;-2.20;99.90;;;;;;5070400;28;20098;-77
2022/11/19 05:00:55;;;;;;;0.10;0.10;;;-2.20;1.00;;;;;;5069813;28;20047;-76
2022/11/19 05:03:21;;;;;;;0.40;0.40;;;-2.20;15.20;;;;;;5070908;28;20037;-77
2022/11/19 05:05:47;;;;;;;0.00;0.00;;;-2.20;1.00;;;;;;5057662;28;20099;-77
2022/11/19 05:08:12;;;;;;;0.15;0.15;;;-2.30;99.90;;;;;;5059103;28;20411;-77
2022/11/19 05:10:38;;;;;;;0.03;0.03;;;-2.30;99.90;;;;;;5057403;28;20045;-77
2022/11/19 05:13:03;;;;;;;0.17;0.17;;;-2.30;7.90;;;;;;5057371;28;20045;-77
2022/11/19 05:15:29;;;;;;;0.10;0.10;;;-2.30;99.90;;;;;;5073611;28;20052;-77
2022/11/19 05:17:54;;;;;;;0.30;0.30;;;-2.30;99.90;;;;;;5077026;28;20079;-76
2022/11/19 05:20:20;;;;;;;0.65;0.65;;;-2.30;1.00;;;;;;5077017;28;20037;-76
2022/11/19 05:22:45;;;;;;;0.87;0.87;;;-2.40;57.20;;;;;;5077468;28;20059;-77
2022/11/19 05:25:11;;;;;;;0.07;0.07;;;-2.40;1.00;;;;;;5077754;28;20064;-77
2022/11/19 05:27:37;;;;;;;0.00;0.00;;;-2.30;99.90;;;;;;5080541;28;20029;-77
2022/11/19 05:30:03;;;;;;;0.50;0.50;;;-2.30;99.90;;;;;;5079054;28;20075;-77
2022/11/19 05:32:28;;;;;;;4.33;1.50;;;-2.20;99.90;;;;;;5078897;28;20027;-77
2022/11/19 05:34:54;;;;;;;0.10;0.10;;;-2.30;99.90;;;;;;5079310;28;20025;-78
2022/11/19 05:37:19;;;;;;;0.28;0.28;;;-2.30;32.20;;;;;;5079633;28;20036;-76
2022/11/19 05:39:45;;;;;;;0.00;0.00;;;-2.40;1.00;;;;;;5079435;28;20032;-77
2022/11/19 05:42:11;;;;;;;1.27;1.20;;;-2.30;99.90;;;;;;5078768;28;20029;-77
2022/11/19 05:44:37;;;;;;;0.00;0.00;;;-2.40;99.90;;;;;;5078208;28;20045;-76
2022/11/19 05:47:02;;;;;;;0.10;0.10;;;-2.40;99.90;;;;;;5079859;28;20075;-77
2022/11/19 05:49:28;;;;;;;1.90;1.80;;;-2.30;97.20;;;;;;5078010;28;20079;-77
2022/11/19 05:51:53;;;;;;;0.32;0.32;;;-2.30;99.90;;;;;;5045265;28;20041;-76
2022/11/19 05:54:19;;;;;;;0.00;0.00;;;-2.30;99.90;;;;;;5078084;28;20047;-76
2022/11/19 05:56:44;;;;;;;1.10;0.98;;;-2.40;99.90;;;;;;5079558;28;20057;-77
2022/11/19 05:59:10;;;;;;;0.00;0.00;;;-2.40;1.00;;;;;;5079561;28;20049;-77
2022/11/19 06:01:36;;;;;;;0.53;0.53;;;-2.40;5.40;;;;;;5079518;28;20072;-77
2022/11/19 06:04:01;;;;;;;0.38;0.38;;;-2.50;99.90;;;;;;5079695;28;20029;-78
2022/11/19 06:06:27;;;;;;;0.38;0.38;;;-2.60;99.90;;;;;;5079355;28;20056;-77
2022/11/19 06:08:52;;;;;;;0.73;0.73;;;-2.60;1.00;;;;;;5079533;28;20048;-77
2022/11/19 06:12:03;;;;;;;0.00;0.00;;;-2.60;1.00;;;;;;5079732;28;20067;-77
2022/11/19 06:14:04;;;;;;;0.10;0.10;;;-2.50;99.90;;;;;;5066377;28;20036;-76
2022/11/19 06:16:29;;;;;;;0.22;0.22;;;-2.60;1.00;;;;;;5077786;28;20033;-77
2022/11/19 06:18:55;;;;;;;0.20;0.20;;;-2.60;1.00;;;;;;5076202;28;20048;-77
2022/11/19 06:21:21;;;;;;;0.27;0.27;;;-2.60;99.90;;;;;;5076979;28;20037;-77
2022/11/19 06:23:49;;;;;;;0.05;0.05;;;-2.70;1.00;;;;;;5076844;28;20077;-77
2022/11/19 06:26:28;;;;;;;0.08;0.08;;;-2.70;63.30;;;;;;5078117;28;20021;-77
2022/11/19 06:28:54;;;;;;;0.47;0.47;;;-2.70;1.00;;;;;;5078230;28;20025;-77
2022/11/19 06:31:20;;;;;;;0.00;0.00;;;-2.80;99.90;;;;;;5077971;28;20032;-77
2022/11/19 06:33:46;;;;;;;0.00;0.00;;;-2.80;99.90;;;;;;5076215;28;20096;-77
2022/11/19 06:36:12;;;;;;;2.90;1.87;;;-2.90;99.90;;;;;;5077048;28;20045;-77
2022/11/19 06:38:38;;;;;;;0.17;0.17;;;-2.80;99.90;;;;;;5077798;28;20442;-77
2022/11/19 06:41:04;;;;;;;0.00;0.00;;;-2.80;99.90;;;;;;5077198;28;20063;-76
2022/11/19 06:43:30;;;;;;;0.30;0.30;;;-2.80;99.90;;;;;;5077159;28;20044;-77
2022/11/19 06:45:55;;;;;;;0.00;0.00;;;-2.90;99.90;;;;;;5076949;28;20039;-76
2022/11/19 06:48:21;;;;;;;0.00;0.00;;;-2.90;99.90;;;;;;5076501;28;20063;-77
2022/11/19 06:50:47;;;;;;;0.20;0.20;;;-2.90;99.90;;;;;;5076660;28;20041;-77
2022/11/19 06:53:12;;;;;;;0.77;0.77;;;-3.00;99.90;;;;;;5076191;28;20045;-77
2022/11/19 06:55:38;;;;;;;0.10;0.10;;;-3.00;99.90;;;;;;5076559;28;20064;-77
2022/11/19 06:58:05;;;;;;;0.20;0.20;;;-3.10;1.00;;;;;;5076858;28;20044;-76
2022/11/19 07:00:32;;;;;;;0.00;0.00;;;-3.00;1.00;;;;;;5077193;28;20052;-77
2022/11/19 07:02:58;;;;;;;0.00;0.00;;;-3.10;99.90;;;;;;5076734;28;20037;-76
2022/11/19 07:05:24;;;;;;;0.77;0.77;;;-3.00;1.00;;;;;;5076189;28;20043;-77
2022/11/19 07:07:49;;;;;;;0.00;0.00;;;-3.10;99.90;;;;;;5076634;28;20037;-77
2022/11/19 07:10:15;;;;;;;0.00;0.00;;;-3.10;1.00;;;;;;5076116;28;20040;-76
2022/11/19 07:12:41;;;;;;;0.20;0.20;;;-3.10;69.10;;;;;;5076751;28;20045;-76
2022/11/19 07:15:07;;;;;;;0.20;0.20;;;-3.10;99.90;;;;;;5075815;28;20021;-76
2022/11/19 07:17:33;;;;;;;0.20;0.20;;;-3.10;99.90;;;;;;5076995;28;20041;-76
2022/11/19 07:19:59;;;;;;;0.00;0.00;;;-3.10;1.00;;;;;;5076824;28;20081;-76
2022/11/19 07:22:26;;;;;;;1.47;1.13;;;-2.90;99.90;;;;;;5075562;28;20037;-76
2022/11/19 07:24:51;;;;;;;0.00;0.00;;;-3.00;99.90;;;;;;5075378;28;20048;-76
2022/11/19 07:27:17;;;;;;;0.00;0.00;;;-3.00;1.00;;;;;;5075623;28;20033;-76
2022/11/19 07:29:43;;;;;;;0.08;0.08;;;-3.00;1.00;;;;;;5077126;28;20037;-76
2022/11/19 07:32:08;;;;;;;0.10;0.10;;;-3.10;99.90;;;;;;5076985;28;20069;-76
2022/11/19 07:34:34;;;;;;;0.00;0.00;;;-3.00;11.50;;;;;;5077131;28;20068;-75
2022/11/19 07:36:59;;;;;;;0.35;0.35;;;-3.00;1.00;;;;;;5077508;28;20071;-76
2022/11/19 07:39:25;;;;;;;0.30;0.30;;;-3.00;99.90;;;;;;5077331;28;20049;-76
2022/11/19 07:44:35;;;;;;;0.20;0.20;;;-2.90;99.90;;;;;;5077394;28;20041;-76
2022/11/19 07:47:01;;;;;;;0.50;0.50;;;-2.90;99.90;;;;;;5077420;28;20097;-76
2022/11/19 07:49:26;;;;;;;0.17;0.17;;;-2.90;1.00;;;;;;5077718;28;20104;-76
2022/11/19 07:51:53;;;;;;;0.27;0.27;;;-2.90;99.90;;;;;;5059024;28;20041;-77
2022/11/19 07:54:18;;;;;;;0.13;0.13;;;-2.70;1.00;;;;;;5076066;28;20047;-76
2022/11/19 07:56:44;;;;;;;0.33;0.33;;;-2.60;1.00;;;;;;5075815;28;20049;-76
2022/11/19 07:59:10;;;;;;;0.10;0.10;;;-2.70;99.90;;;;;;5076529;28;20044;-76
2022/11/19 08:01:37;;;;;;;0.00;0.00;;;-2.70;66.70;;;;;;5077826;28;20036;-76
2022/11/19 08:04:04;;;;;;;0.20;0.20;;;-2.60;99.90;;;;;;5066006;28;20021;-76
2022/11/19 08:06:32;;;;;;;0.00;0.00;;;-2.60;1.00;;;;;;5056784;28;20067;-75
2022/11/19 08:08:57;;;;;;;0.10;0.10;;;-2.60;1.00;;;;;;5074564;28;20064;-76
2022/11/19 08:11:23;;;;;;;1.20;1.10;;;-2.50;1.00;;;;;;5076704;28;20062;-76
2022/11/19 08:13:49;;;;;;;0.85;0.85;;;-2.50;1.00;;;;;;5076617;28;20064;-75
2022/11/19 08:19:02;;;;;;;0.20;0.20;;;-2.40;99.90;;;;;;5076004;28;20049;-76
2022/11/19 08:21:28;;;;;;;0.13;0.13;;;-2.30;99.90;;;;;;5076657;28;20033;-76
2022/11/19 08:23:54;;;;;;;0.47;0.47;;;-2.30;1.00;;;;;;5076501;28;20037;-77
2022/11/19 08:26:19;;;;;;;0.00;0.00;;;-2.30;74.80;;;;;;5076923;28;20120;-76
2022/11/19 08:28:45;;;;;;;0.57;0.57;;;-2.30;99.90;;;;;;5076947;28;20092;-76
2022/11/19 08:31:11;;;;;;;0.00;0.00;;;-2.30;99.90;;;;;;5056307;28;20060;-77
2022/11/19 08:33:36;;;;;;;3.00;2.03;;;-2.20;99.90;;;;;;5075678;28;20052;-77
2022/11/19 08:36:03;;;;;;;0.47;0.22;;;-2.20;99.90;;;;;;5058750;28;20064;-77
2022/11/19 08:38:28;;;;;;;0.10;0.10;;;-2.10;99.90;;;;;;5072637;28;20063;-76
2022/11/19 08:42:58;;;;;;;0.20;0.20;;;-2.00;99.90;;;;;;5070278;28;20045;-76
2022/11/19 08:43:40;;;;;;;0.32;0.32;;;-1.90;99.90;;;;;;5054153;28;20045;-76
2022/11/19 08:46:07;;;;;;;0.52;0.40;;;-1.80;99.90;;;;;;5075505;28;20043;-76
2022/11/19 08:48:33;;;;;;;0.43;0.43;;;-1.80;1.00;;;;;;5071281;28;20029;-76
2022/11/19 08:51:05;;;;;;;0.05;0.05;;;-1.80;65.70;;;;;;5055328;28;20043;-76
2022/11/19 08:53:31;;;;;;;0.37;0.37;;;-1.60;1.00;;;;;;5074904;28;20040;-76
2022/11/19 08:55:56;;;;;;;0.27;0.27;;;-1.60;99.90;;;;;;5074026;28;20040;-77
2022/11/19 08:58:22;;;;;;;1.37;1.17;;;-1.60;28.50;;;;;;5073578;28;20083;-76
2022/11/19 09:00:48;;;;;;;0.10;0.10;;;-1.50;75.80;;;;;;5072759;28;20041;-76
2022/11/19 09:03:14;;;;;;;0.90;0.82;;;-1.50;99.90;;;;;;5073430;28;20128;-76
2022/11/19 09:05:40;;;;;;;0.00;0.00;;;-1.40;99.90;;;;;;5072541;28;20452;-78
2022/11/19 09:08:06;;;;;;;0.65;0.52;;;-1.30;1.00;;;;;;5052385;28;20068;-76
2022/11/19 09:10:33;;;;;;;1.20;1.03;;;-1.30;68.70;;;;;;5052349;28;20045;-76
2022/11/19 09:13:01;;;;;;;0.35;0.28;;;-1.20;94.00;;;;;;5067964;28;20040;-76
2022/11/19 09:15:27;;;;;;;0.30;0.30;;;-1.10;99.90;;;;;;5072534;28;20075;-76
2022/11/19 09:17:52;;;;;;;0.00;0.00;;;-1.10;99.90;;;;;;5071456;28;20060;-76
2022/11/19 09:20:18;;;;;;;0.23;0.23;;;-1.00;1.00;;;;;;5070960;28;20052;-76
2022/11/19 09:22:44;;;;;;;0.20;0.20;;;-0.90;1.00;;;;;;5071119;28;20056;-76
2022/11/19 09:25:10;;;;;;;0.10;0.10;;;-0.90;99.90;;;;;;5054673;28;20045;-76
2022/11/19 09:27:36;;;;;;;1.27;0.93;;;-0.90;1.00;;;;;;5072727;28;20033;-76
2022/11/19 09:30:03;;;;;;;0.15;0.15;;;-0.90;3.10;;;;;;5071221;28;20037;-76
2022/11/19 09:32:28;;;;;;;0.00;0.00;;;-0.80;99.90;;;;;;5071780;28;20087;-76
2022/11/19 09:34:54;;;;;;;0.10;0.10;;;-0.80;1.00;;;;;;5072146;28;20049;-76
2022/11/19 09:37:19;;;;;;;1.58;1.48;;;-0.70;1.00;;;;;;5071563;28;20103;-76
2022/11/19 09:39:45;;;;;;;1.48;1.40;;;-0.70;1.00;;;;;;5052726;28;20048;-76
2022/11/19 09:42:15;;;;;;;0.30;0.30;;;-0.60;99.90;;;;;;5071254;28;20038;-75
2022/11/19 09:45:03;;;;;;;0.00;0.00;;;-0.70;1.00;;;;;;5070943;28;20044;-75
2022/11/19 09:48:01;;;;;;;0.45;0.45;;;-0.70;1.00;;;;;;5070984;28;20446;-76
2022/11/19 09:50:31;;;;;;;0.73;0.73;;;-0.60;99.90;;;;;;5043134;28;20053;-75
2022/11/19 09:53:00;;;;;;;0.20;0.20;;;-0.50;99.90;;;;;;5076609;28;20490;-76
2022/11/19 09:55:38;;;;;;;1.08;0.98;;;-0.50;99.90;;;;;;5092215;22;20075;-91
2022/11/19 09:58:30;;;;;;;0.10;0.10;;;-0.40;99.90;;;;;;5073787;28;20041;-90
2022/11/19 10:00:56;;;;;;;0.68;0.68;;;-0.40;99.90;;;;;;5074766;28;20044;-92
2022/11/19 10:03:24;;;;;;;1.48;1.38;;;-0.30;99.90;;;;;;5058355;28;20096;-91
2022/11/19 10:06:01;;;;;;;0.40;0.40;;;-0.30;99.90;;;;;;5054299;28;20041;-91
2022/11/19 10:09:05;;;;;;;2.00;1.65;;;-0.20;99.90;;;;;;5054652;28;20049;-91
2022/11/19 10:12:02;;;;;;;0.60;0.60;;;-0.10;1.00;;;;;;5069063;28;20049;-90
2022/11/19 10:15:17;;;;;;;0.57;0.57;;;0.00;1.00;;;;;;5040292;28;20056;-89
2022/11/19 10:17:57;;;;;;;0.10;0.10;;;-0.10;80.10;;;;;;5062899;28;20056;-90
2022/11/19 10:20:47;;;;;;;0.73;0.73;;;0.00;1.00;;;;;;5062636;28;20032;-89
2022/11/19 10:23:19;;;;;;;0.10;0.10;;;0.10;1.00;;;;;;5080610;28;20036;-90
2022/11/19 10:25:47;;;;;;;0.10;0.10;;;0.10;1.00;;;;;;5062701;28;20109;-90
2022/11/19 10:28:29;;;;;;;0.00;0.00;;;0.20;99.90;;;;;;5063027;28;20100;-91
2022/11/19 10:31:10;;;;;;;0.88;0.68;;;0.30;99.90;;;;;;5063130;28;20039;-90
2022/11/19 10:33:48;;;;;;;0.20;0.20;;;0.30;99.90;;;;;;5063216;28;20052;-90
2022/11/19 10:36:37;;;;;;;0.82;0.40;;;0.20;1.00;;;;;;5061998;28;20033;-90
2022/11/19 10:39:31;;;;;;;0.10;0.10;;;0.20;1.00;;;;;;5057454;28;20071;-90
2022/11/19 10:42:19;;;;;;;1.15;1.10;;;0.40;99.90;;;;;;5054673;28;20079;-89
2022/11/19 10:44:50;;;;;;;1.20;1.05;;;0.40;1.00;;;;;;5061531;28;20059;-90
2022/11/19 10:47:21;;;;;;;1.35;1.25;;;0.40;1.00;;;;;;5062205;28;20045;-90
2022/11/19 10:49:52;;;;;;;0.30;0.30;;;0.40;93.40;;;;;;5078611;28;20017;-89
2022/11/19 10:52:59;;;;;;;2.35;1.27;;;0.40;1.00;;;;;;5062338;28;20089;-91
2022/11/19 10:55:30;;;;;;;0.32;0.32;;;0.40;1.00;;;;;;5038435;28;20087;-90
2022/11/19 10:58:12;;;;;;;0.00;0.00;;;0.50;1.20;;;;;;5073440;28;20045;-90
2022/11/19 11:00:40;;;;;;;0.30;0.30;;;0.60;1.00;;;;;;5050364;28;20037;-89
2022/11/19 11:03:22;;;;;;;0.40;0.40;;;0.60;1.00;;;;;;5039586;28;20029;-88
2022/11/19 11:06:05;;;;;;;0.35;0.35;;;0.80;99.90;;;;;;5026923;28;20049;-88
2022/11/19 11:08:31;;;;;;;0.85;0.45;;;0.10;99.90;;;;;;5040948;28;20041;-89
2022/11/19 11:10:58;;;;;;;0.38;0.38;;;0.60;99.90;;;;;;5008006;28;20052;-90
2022/11/19 11:16:20;;;;;;;0.43;0.43;;;0.90;99.90;;;;;;5025081;28;20096;-89
2022/11/19 11:18:48;;;;;;;0.28;0.28;;;0.90;99.90;;;;;;5042882;28;20040;-90
2022/11/19 11:21:34;;;;;;;0.47;0.43;;;0.90;99.90;;;;;;5043271;28;20446;-90
2022/11/19 11:24:03;;;;;;;0.15;0.15;;;1.00;99.90;;;;;;5025511;28;20064;-90
2022/11/19 11:26:32;;;;;;;3.35;0.57;;;0.30;99.90;;;;;;5007732;28;20035;-90
2022/11/19 11:29:12;;;;;;;0.35;0.35;;;0.60;1.00;;;;;;5043209;28;20045;-90
2022/11/19 11:31:40;;;;;;;0.00;0.00;;;1.00;1.00;;;;;;5024915;28;20037;-90
2022/11/19 11:34:26;;;;;;;0.95;0.95;;;1.10;1.00;;;;;;5023867;28;20037;-90
2022/11/19 11:36:56;;;;;;;0.00;0.00;;;1.90;99.90;;;;;;5027572;28;20098;-90
2022/11/19 11:39:28;;;;;;;0.75;0.73;;;1.80;99.90;;;;;;5042910;28;20115;-88
2022/11/19 11:42:00;;;;;;;0.05;0.05;;;1.50;99.90;;;;;;5061156;28;20040;-89
2022/11/19 11:44:32;;;;;;;2.35;2.08;;;1.30;99.90;;;;;;5044779;28;20237;-89
2022/11/19 11:47:03;;;;;;;0.10;0.10;;;1.90;1.00;;;;;;5061644;28;20040;-89
2022/11/19 11:49:34;;;;;;;0.55;0.55;;;1.60;99.90;;;;;;5061560;28;20033;-88
2022/11/19 11:52:15;;;;;;;0.15;0.15;;;1.80;99.90;;;;;;5044455;28;20044;-89
2022/11/19 11:55:03;;;;;;;1.20;0.93;;;1.80;99.90;;;;;;5030710;28;20042;-89
2022/11/19 11:57:32;;;;;;;0.30;0.30;;;1.80;99.90;;;;;;5003332;28;20032;-89
2022/11/19 11:59:58;;;;;;;0.40;0.40;;;1.70;80.60;;;;;;5003117;28;20049;-89
2022/11/19 12:02:28;;;;;;;0.17;0.17;;;2.20;99.90;;;;;;5001094;28;20037;-89
2022/11/19 12:04:55;;;;;;;0.15;0.15;;;2.80;99.90;;;;;;5002992;28;20046;-89
2022/11/19 12:07:41;;;;;;;0.43;0.43;;;2.30;99.90;;;;;;5015223;28;20022;-89
2022/11/19 12:10:39;;;;;;;0.20;0.20;;;2.30;99.90;;;;;;4999506;28;20034;-89
2022/11/19 12:13:23;;;;;;;0.08;0.05;;;2.50;99.90;;;;;;5019005;28;20085;-88
2022/11/19 12:15:57;;;;;;;0.80;0.77;;;2.50;99.90;;;;;;5019744;28;20094;-90
2022/11/19 12:18:45;;;;;;;0.43;0.38;;;2.50;99.90;;;;;;5003046;28;20030;-90
2022/11/19 12:21:32;;;;;;;0.22;0.20;;;2.60;99.90;;;;;;4985575;28;20025;-90
2022/11/19 12:24:28;;;;;;;0.08;0.08;;;2.60;99.90;;;;;;5037136;28;20033;-91
2022/11/19 12:27:11;;;;;;;0.20;0.17;;;2.70;1.00;;;;;;5036395;28;20073;-91
2022/11/19 12:30:02;;;;;;;0.00;0.00;;;2.70;99.90;;;;;;5019966;28;20033;-90
2022/11/19 12:32:46;;;;;;;0.38;0.38;;;2.80;99.90;;;;;;5035119;28;20066;-90
2022/11/19 12:35:21;;;;;;;1.00;0.73;;;2.80;99.90;;;;;;5036056;28;20026;-90
2022/11/19 12:37:54;;;;;;;1.27;0.93;;;2.90;99.90;;;;;;5035345;28;20036;-90
2022/11/19 12:40:34;;;;;;;0.63;0.55;;;3.00;99.90;;;;;;5020400;28;20354;-90
2022/11/19 12:43:22;;;;;;;0.82;0.80;;;3.00;99.90;;;;;;5004317;28;20165;-90
2022/11/19 12:46:09;;;;;;;0.08;0.08;;;3.10;99.90;;;;;;5020839;28;20033;-89
2022/11/19 12:48:42;;;;;;;;;;;2.90;99.90;;;;;;5004367;28;20049;-90
2022/11/19 12:51:50;;;;;;;0.52;0.47;;;3.00;99.90;;;;;;5019639;28;19916;-90
2022/11/19 12:54:35;;;;;;;0.10;0.10;;;3.40;99.90;;;;;;5007642;28;20045;-90
2022/11/19 12:57:32;;;;;;;0.25;0.25;;;3.60;1.00;;;;;;5022946;28;20065;-91
2022/11/19 13:00:12;;;;;;;0.05;0.05;;;3.60;99.90;;;;;;5022935;28;20044;-90
2022/11/19 13:02:47;;;;;;;1.55;0.80;;;3.70;71.70;;;;;;5041193;28;20038;-90
2022/11/19 13:05:35;;;;;;;0.10;0.10;;;4.00;1.00;;;;;;5040332;28;20053;-90
2022/11/19 13:08:11;;;;;;;1.60;1.13;;;4.10;99.90;;;;;;5038951;28;20108;-90
2022/11/19 13:11:06;;;;;;;0.45;0.28;;;4.10;99.90;;;;;;5022509;28;20029;-90
2022/11/19 13:13:34;;;;;;;0.10;0.10;;;4.20;1.00;;;;;;4995834;28;20044;-91
2022/11/19 13:16:08;;;;;;;1.27;0.80;;;4.90;1.00;;;;;;5024388;28;20030;-91
2022/11/19 13:18:38;;;;;;;0.45;0.38;;;4.50;99.90;;;;;;5056680;28;20093;-91
2022/11/19 13:21:21;;;;;;;1.30;0.75;;;4.50;1.00;;;;;;5021993;28;20033;-90
2022/11/19 13:23:48;;;;;;;1.30;0.75;;;5.40;99.90;;;;;;5055309;28;20037;-91
2022/11/19 13:26:19;;;;;;;0.40;0.30;;;4.90;99.90;;;;;;5041961;28;20113;-91
2022/11/19 13:28:51;;;;;;;0.75;0.40;;;4.50;99.90;;;;;;5025683;28;20044;-91
2022/11/19 13:31:32;;;;;;;4.45;0.65;;;4.50;99.90;;;;;;5026829;28;20040;-91
2022/11/19 13:34:17;;;;;;;0.82;0.50;;;4.50;99.90;;;;;;5026610;28;20035;-91
2022/11/19 13:37:31;;;;;;;0.10;0.10;;;4.30;99.90;;;;;;5027018;28;20072;-90